Time;durP1;ratioP1;P1;durP2;ratioP2;P2;SDS_P1;SDS_P2;PMS_P1;PMS_P2;Temp;Humidity;BMP_temperature;BMP_pressure;BME280_temperature;BME280_humidity;BME280_pressure;Samples;Min_cycle;Max_cycle;Signal;HPM_P1;HPM_P2
2023/08/22 00:01:02;;;;;;;17.30;15.50;;;614.70;2432.00;;;;;;4973707;28;20045;-63
2023/08/22 00:03:28;;;;;;;17.02;15.18;;;614.60;2432.00;;;;;;4973362;28;20022;-62
2023/08/22 00:05:55;;;;;;;18.55;16.65;;;614.60;2432.00;;;;;;4974057;28;20023;-65
2023/08/22 00:08:21;;;;;;;18.65;16.55;;;614.50;2432.00;;;;;;4973878;28;20019;-63
2023/08/22 00:10:47;;;;;;;18.52;16.20;;;614.50;2432.00;;;;;;4974238;28;20385;-66
2023/08/22 00:13:12;;;;;;;17.88;16.25;;;614.40;2432.00;;;;;;4973779;28;20027;-63
2023/08/22 00:15:39;;;;;;;18.25;16.52;;;614.40;2432.00;;;;;;4973610;28;20051;-63
2023/08/22 00:18:05;;;;;;;19.48;17.58;;;589.70;2432.00;;;;;;4979449;28;20216;-66
2023/08/22 00:20:31;;;;;;;20.25;17.55;;;589.70;2432.00;;;;;;4962680;28;20043;-68
2023/08/22 00:22:57;;;;;;;20.85;18.70;;;589.70;2432.00;;;;;;4973559;28;20029;-65
2023/08/22 00:25:22;;;;;;;19.83;17.77;;;589.70;2432.00;;;;;;4974169;28;20027;-66
2023/08/22 00:27:48;;;;;;;21.00;17.90;;;589.70;2432.00;;;;;;4973842;28;20158;-63
2023/08/22 00:30:14;;;;;;;23.80;20.35;;;589.70;2432.00;;;;;;4986656;28;20030;-64
2023/08/22 00:32:39;;;;;;;23.35;20.48;;;614.40;2432.00;;;;;;4973277;28;20030;-64
2023/08/22 00:35:05;;;;;;;20.60;18.25;;;614.50;2432.00;;;;;;4973386;28;20030;-64
2023/08/22 00:37:31;;;;;;;19.70;17.20;;;614.40;2432.00;;;;;;4973412;28;20445;-61
2023/08/22 00:39:57;;;;;;;18.80;16.83;;;589.70;2432.00;;;;;;4973140;28;20109;-61
2023/08/22 00:42:23;;;;;;;19.02;17.00;;;589.50;2432.00;;;;;;4980165;28;20039;-61
2023/08/22 00:44:48;;;;;;;18.98;16.58;;;589.40;2432.00;;;;;;4973176;28;20035;-62
2023/08/22 00:47:16;;;;;;;19.38;17.33;;;589.30;2432.00;;;;;;4973371;28;20123;-62
2023/08/22 00:49:42;;;;;;;20.48;17.98;;;589.30;2432.00;;;;;;4972993;28;20030;-64
2023/08/22 00:52:08;;;;;;;19.27;17.40;;;589.20;2432.00;;;;;;4973079;28;20027;-62
2023/08/22 00:54:34;;;;;;;17.30;15.57;;;589.10;2432.00;;;;;;4973106;28;20019;-62
2023/08/22 00:57:00;;;;;;;23.35;17.13;;;589.20;2432.00;;;;;;4972720;28;20030;-63
2023/08/22 00:59:27;;;;;;;18.70;16.85;;;589.20;2432.00;;;;;;4972518;28;20437;-62
2023/08/22 01:01:53;;;;;;;25.63;17.42;;;589.30;2432.00;;;;;;4973074;28;20077;-64
2023/08/22 01:04:20;;;;;;;16.65;15.02;;;589.40;2432.00;;;;;;4972452;28;20069;-62
2023/08/22 01:06:53;;;;;;;19.15;16.00;;;589.50;2432.00;;;;;;4989605;28;20066;-62
2023/08/22 01:09:36;;;;;;;;;;;589.60;2432.00;;;;;;4992319;28;20022;-64
2023/08/22 01:12:11;;;;;;;23.88;16.42;;;589.60;2432.00;;;;;;4992550;28;19953;-61
2023/08/22 01:14:43;;;;;;;17.38;15.75;;;589.60;2432.00;;;;;;4991983;28;20072;-61
2023/08/22 01:17:12;;;;;;;18.60;16.60;;;589.70;2432.00;;;;;;4991871;28;20022;-62
2023/08/22 01:19:38;;;;;;;18.73;16.63;;;589.70;2432.00;;;;;;4990842;28;20074;-63
2023/08/22 01:22:04;;;;;;;19.65;17.65;;;589.70;2432.00;;;;;;4991925;28;20030;-61
2023/08/22 01:24:29;;;;;;;17.45;15.85;;;589.60;2432.00;;;;;;4991542;28;20025;-63
2023/08/22 01:26:55;;;;;;;18.08;16.33;;;589.50;2432.00;;;;;;4992191;28;20097;-61
2023/08/22 01:29:30;;;;;;;19.38;16.88;;;589.40;2432.00;;;;;;4984658;28;20504;-62
2023/08/22 01:32:09;;;;;;;18.63;16.70;;;589.40;2432.00;;;;;;4991799;28;20022;-65
2023/08/22 01:34:38;;;;;;;18.25;16.42;;;589.40;2432.00;;;;;;4991974;28;20030;-62
2023/08/22 01:37:06;;;;;;;20.08;17.35;;;589.50;2432.00;;;;;;4991848;28;20539;-69
2023/08/22 01:39:34;;;;;;;19.80;17.85;;;589.50;2432.00;;;;;;4991645;28;20026;-62
2023/08/22 01:42:00;;;;;;;19.08;17.20;;;589.40;2432.00;;;;;;4991157;28;20030;-62
2023/08/22 01:44:28;;;;;;;19.95;17.70;;;589.20;2432.00;;;;;;4991806;28;20034;-61
2023/08/22 01:46:54;;;;;;;19.83;17.83;;;589.10;2432.00;;;;;;4991590;28;20029;-61
2023/08/22 01:49:20;;;;;;;23.73;18.23;;;589.10;2432.00;;;;;;4991502;28;20389;-64
2023/08/22 01:51:46;;;;;;;20.05;17.83;;;589.10;2432.00;;;;;;4991516;28;20124;-64
2023/08/22 01:54:12;;;;;;;20.25;18.00;;;589.20;2432.00;;;;;;4990620;28;20496;-62
2023/08/22 01:56:37;;;;;;;20.08;16.27;;;589.30;2432.00;;;;;;4991110;28;20026;-63
2023/08/22 01:59:03;;;;;;;18.25;16.40;;;589.20;2432.00;;;;;;4991367;28;20030;-61
2023/08/22 02:01:29;;;;;;;21.30;18.65;;;589.30;2432.00;;;;;;4991336;28;20034;-65
2023/08/22 02:03:54;;;;;;;19.55;17.63;;;589.20;2432.00;;;;;;4991519;28;20023;-61
2023/08/22 02:06:20;;;;;;;19.83;17.42;;;589.10;2432.00;;;;;;4990911;28;20357;-60
2023/08/22 02:08:46;;;;;;;19.63;17.52;;;589.10;2432.00;;;;;;4990642;28;20058;-62
2023/08/22 02:11:11;;;;;;;19.70;17.70;;;589.10;2432.00;;;;;;4990399;28;20539;-62
2023/08/22 02:13:37;;;;;;;20.27;18.23;;;589.00;2432.00;;;;;;4990697;28;20014;-62
2023/08/22 02:16:03;;;;;;;20.08;18.15;;;589.00;2432.00;;;;;;4991673;28;20142;-62
2023/08/22 02:18:29;;;;;;;22.10;18.13;;;589.00;2432.00;;;;;;4990726;28;20018;-62
2023/08/22 02:20:56;;;;;;;19.20;16.85;;;588.90;2432.00;;;;;;4991221;28;20362;-61
2023/08/22 02:23:22;;;;;;;20.50;18.60;;;588.90;2432.00;;;;;;4990562;28;20018;-62
2023/08/22 02:25:47;;;;;;;22.20;19.02;;;588.90;2432.00;;;;;;4976001;28;20537;-65
2023/08/22 02:28:13;;;;;;;19.48;17.50;;;588.80;2432.00;;;;;;4987019;28;20089;-62
2023/08/22 02:30:39;;;;;;;19.75;17.85;;;588.90;2432.00;;;;;;4990615;28;20465;-67
2023/08/22 02:33:05;;;;;;;19.27;17.25;;;588.80;2432.00;;;;;;4990731;28;20428;-66
2023/08/22 02:35:31;;;;;;;19.25;17.40;;;588.80;2432.00;;;;;;4990009;28;20033;-60
2023/08/22 02:37:57;;;;;;;18.95;16.98;;;588.80;2432.00;;;;;;4990789;28;20022;-61
2023/08/22 02:40:23;;;;;;;18.55;16.50;;;588.80;2432.00;;;;;;4990517;28;20015;-62
2023/08/22 02:42:49;;;;;;;18.45;16.08;;;588.90;2432.00;;;;;;4990310;28;20045;-61
2023/08/22 02:45:15;;;;;;;19.40;17.42;;;588.90;2432.00;;;;;;4990254;28;20935;-62
2023/08/22 02:47:41;;;;;;;21.02;18.35;;;588.90;2432.00;;;;;;4979594;28;20031;-63
2023/08/22 02:50:07;;;;;;;20.73;16.52;;;588.80;2432.00;;;;;;4988032;28;20019;-62
2023/08/22 02:52:33;;;;;;;18.13;16.25;;;588.90;2432.00;;;;;;4990641;28;20491;-60
2023/08/22 02:54:59;;;;;;;19.25;16.48;;;588.90;2432.00;;;;;;4977214;28;20014;-62
2023/08/22 02:57:25;;;;;;;18.27;16.38;;;588.90;2432.00;;;;;;4990603;28;20405;-62
2023/08/22 02:59:51;;;;;;;17.55;15.68;;;589.00;2432.00;;;;;;4989934;28;20030;-62
2023/08/22 03:02:16;;;;;;;18.70;16.80;;;589.00;2432.00;;;;;;4990343;28;20096;-61
2023/08/22 03:04:43;;;;;;;18.48;16.55;;;589.00;2432.00;;;;;;4990114;28;20026;-62
2023/08/22 03:07:09;;;;;;;18.88;16.90;;;589.10;2432.00;;;;;;4972673;28;20129;-61
2023/08/22 03:09:36;;;;;;;19.65;16.35;;;589.00;2432.00;;;;;;4990077;28;20105;-63
2023/08/22 03:12:03;;;;;;;21.77;17.02;;;589.00;2432.00;;;;;;4990380;28;20038;-66
2023/08/22 03:14:28;;;;;;;19.58;17.08;;;589.00;2432.00;;;;;;4989633;28;20042;-60
2023/08/22 03:16:55;;;;;;;19.15;16.77;;;588.90;2432.00;;;;;;4972452;28;20057;-61
2023/08/22 03:19:21;;;;;;;18.42;16.50;;;588.90;2432.00;;;;;;4990256;28;20022;-61
2023/08/22 03:21:47;;;;;;;18.02;16.13;;;588.90;2432.00;;;;;;4989403;28;20385;-61
2023/08/22 03:24:13;;;;;;;20.20;18.00;;;588.90;2432.00;;;;;;4990048;28;20022;-63
2023/08/22 03:26:38;;;;;;;19.25;17.20;;;588.90;2432.00;;;;;;4989880;28;20026;-61
2023/08/22 03:29:04;;;;;;;19.05;17.10;;;588.90;2432.00;;;;;;4990164;28;20050;-61
2023/08/22 03:31:30;;;;;;;18.48;16.77;;;588.80;2432.00;;;;;;4989656;28;20034;-65
2023/08/22 03:33:55;;;;;;;18.95;16.88;;;564.10;2432.00;;;;;;4990395;28;20026;-64
2023/08/22 03:36:21;;;;;;;19.83;17.77;;;564.10;2432.00;;;;;;4989746;28;20030;-65
2023/08/22 03:38:50;;;;;;;18.70;16.38;;;564.00;2432.00;;;;;;4989861;28;20030;-64
2023/08/22 03:41:17;;;;;;;19.80;17.85;;;564.00;2432.00;;;;;;4989676;28;20513;-65
2023/08/22 03:43:43;;;;;;;22.70;19.83;;;564.00;2432.00;;;;;;4989865;28;20030;-66
2023/08/22 03:46:09;;;;;;;21.52;18.20;;;564.00;2432.00;;;;;;4989782;28;20022;-66
2023/08/22 03:48:34;;;;;;;20.80;18.77;;;563.90;2432.00;;;;;;4989852;28;20021;-65
2023/08/22 03:51:04;;;;;;;21.42;18.95;;;563.70;2432.00;;;;;;4989555;28;20046;-62
2023/08/22 03:53:29;;;;;;;20.67;18.67;;;563.70;2432.00;;;;;;4989584;28;20566;-65
2023/08/22 03:55:55;;;;;;;20.10;17.77;;;563.70;2432.00;;;;;;4989851;28;20110;-64
2023/08/22 03:58:21;;;;;;;23.05;20.33;;;563.60;2432.00;;;;;;4989666;28;20354;-65
2023/08/22 04:00:47;;;;;;;21.48;16.55;;;563.60;2432.00;;;;;;4989442;28;20113;-63
2023/08/22 04:03:13;;;;;;;21.65;19.38;;;563.60;2432.00;;;;;;4989939;28;20117;-63
2023/08/22 04:05:42;;;;;;;21.30;18.92;;;563.60;2432.00;;;;;;4989388;28;20030;-63
2023/08/22 04:08:08;;;;;;;22.45;18.83;;;563.50;2432.00;;;;;;4989839;28;20129;-65
2023/08/22 04:10:33;;;;;;;23.55;18.77;;;563.60;2432.00;;;;;;4989377;28;20545;-62
2023/08/22 04:12:59;;;;;;;21.40;19.13;;;563.60;2432.00;;;;;;4989459;28;20584;-64
2023/08/22 04:15:25;;;;;;;23.02;19.30;;;563.60;2432.00;;;;;;4989318;28;20053;-65
2023/08/22 04:17:50;;;;;;;21.02;17.77;;;563.80;2432.00;;;;;;4989639;28;20092;-63
2023/08/22 04:20:16;;;;;;;19.98;17.98;;;563.90;2432.00;;;;;;4989436;28;20493;-63
2023/08/22 04:22:42;;;;;;;19.58;17.38;;;589.00;2432.00;;;;;;4989040;28;20477;-63
2023/08/22 04:25:11;;;;;;;23.92;17.30;;;588.80;2432.00;;;;;;4989390;28;20416;-64
2023/08/22 04:27:37;;;;;;;21.38;18.30;;;588.90;2432.00;;;;;;4989451;28;20037;-67
2023/08/22 04:30:04;;;;;;;19.70;17.73;;;588.90;2432.00;;;;;;4989256;28;20377;-69
2023/08/22 04:32:30;;;;;;;18.38;16.08;;;588.90;2432.00;;;;;;4989819;28;20481;-64
2023/08/22 04:34:56;;;;;;;19.48;17.45;;;588.90;2432.00;;;;;;4993250;28;20121;-66
2023/08/22 04:37:22;;;;;;;21.15;16.77;;;589.00;2432.00;;;;;;4993206;28;20018;-67
2023/08/22 04:39:47;;;;;;;21.08;16.80;;;589.20;2432.00;;;;;;4992636;28;20062;-64
2023/08/22 04:42:13;;;;;;;17.58;15.88;;;615.20;2432.00;;;;;;4992757;28;20043;-67
2023/08/22 04:44:39;;;;;;;17.23;14.57;;;640.20;2432.00;;;;;;4992700;28;20057;-65
2023/08/22 04:47:05;;;;;;;18.58;16.77;;;640.20;2432.00;;;;;;4993062;28;20037;-62
2023/08/22 04:49:30;;;;;;;19.48;17.35;;;615.30;2432.00;;;;;;4992916;28;20019;-66
2023/08/22 04:51:56;;;;;;;18.92;16.92;;;640.10;2432.00;;;;;;4990616;28;20045;-65
2023/08/22 04:54:22;;;;;;;19.17;16.67;;;691.20;2432.00;;;;;;4973101;28;20027;-65
2023/08/22 04:56:48;;;;;;;18.55;16.23;;;;;;;;;;4983319;28;20117;-63
2023/08/22 04:59:13;;;;;;;15.88;14.18;;;743.30;2432.00;;;;;;4992711;28;20022;-62
2023/08/22 05:01:39;;;;;;;17.70;15.93;;;742.80;2432.00;;;;;;4992252;28;20035;-61
2023/08/22 05:04:05;;;;;;;17.45;15.73;;;742.90;2432.00;;;;;;4992582;28;20023;-62
2023/08/22 05:06:30;;;;;;;18.50;16.52;;;742.60;2432.00;;;;;;4992180;28;20076;-63
2023/08/22 05:08:56;;;;;;;18.70;16.92;;;717.50;2432.00;;;;;;4992202;28;20026;-62
2023/08/22 05:11:22;;;;;;;17.83;15.95;;;717.40;2432.00;;;;;;4992314;28;20038;-62
2023/08/22 05:13:48;;;;;;;17.80;15.90;;;717.20;2432.00;;;;;;4992008;28;20057;-63
2023/08/22 05:16:13;;;;;;;19.00;14.65;;;742.40;2432.00;;;;;;4992586;28;20030;-63
2023/08/22 05:18:39;;;;;;;19.40;15.57;;;743.10;2432.00;;;;;;4991997;28;20022;-63
2023/08/22 05:21:05;;;;;;;18.08;16.38;;;768.10;2406.40;;;;;;4992114;28;20069;-62
2023/08/22 05:23:31;;;;;;;17.30;15.57;;;768.40;2406.40;;;;;;4991873;28;20488;-63
2023/08/22 05:25:57;;;;;;;18.15;16.38;;;794.20;2329.60;;;;;;4992294;28;20030;-62
2023/08/22 05:28:23;;;;;;;17.63;15.88;;;819.80;2176.00;;;;;;4992084;28;20372;-61
2023/08/22 05:30:49;;;;;;;17.73;14.40;;;871.30;1971.20;;;;;;4992206;28;20365;-63
2023/08/22 05:33:14;;;;;;;16.48;14.82;;;896.90;1894.40;;;;;;4990360;28;20570;-63
2023/08/22 05:35:40;;;;;;;16.00;14.38;;;947.40;1766.40;;;;;;4980229;28;20030;-62
2023/08/22 05:38:05;;;;;;;15.73;14.32;;;948.10;1715.20;;;;;;4991726;28;20471;-62
2023/08/22 05:40:31;;;;;;;15.38;13.50;;;973.50;1664.00;;;;;;4991774;28;20074;-63
2023/08/22 05:42:57;;;;;;;18.13;15.80;;;973.50;1664.00;;;;;;4991808;28;20062;-62
2023/08/22 05:45:23;;;;;;;16.88;15.25;;;973.60;1638.40;;;;;;4991888;28;20077;-62
2023/08/22 05:47:48;;;;;;;17.48;15.88;;;998.70;1612.80;;;;;;4990971;28;20535;-63
2023/08/22 05:50:14;;;;;;;15.95;14.05;;;998.80;1612.80;;;;;;4991488;28;20018;-62
2023/08/22 05:52:40;;;;;;;17.73;15.93;;;999.30;1561.60;;;;;;4991205;28;20068;-62
2023/08/22 05:55:06;;;;;;;18.52;16.45;;;1024.20;1536.00;;;;;;4991566;28;20038;-63
2023/08/22 05:57:32;;;;;;;17.52;16.13;;;1024.30;1510.40;;;;;;4991354;28;20023;-61
2023/08/22 05:59:59;;;;;;;18.25;16.55;;;1050.40;1459.20;;;;;;4991230;28;20022;-61
2023/08/22 06:02:25;;;;;;;17.75;16.00;;;1050.00;1484.80;;;;;;4990849;28;20397;-62
2023/08/22 06:04:51;;;;;;;17.00;15.40;;;1050.50;1459.20;;;;;;4991111;28;20027;-61
2023/08/22 06:07:17;;;;;;;17.00;15.27;;;1075.50;1433.60;;;;;;4991319;28;20057;-61
2023/08/22 06:09:43;;;;;;;16.45;15.00;;;1075.90;1408.00;;;;;;4991252;28;20030;-62
2023/08/22 06:12:09;;;;;;;16.88;15.50;;;1100.90;1408.00;;;;;;4991185;28;20030;-61
2023/08/22 06:14:34;;;;;;;17.98;16.48;;;1075.80;1408.00;;;;;;4991232;28;20169;-60
2023/08/22 06:17:00;;;;;;;16.67;14.95;;;1101.20;1382.40;;;;;;4991064;28;20125;-61
2023/08/22 06:19:26;;;;;;;15.95;14.45;;;1101.60;1382.40;;;;;;4983913;28;20521;-60
2023/08/22 06:21:53;;;;;;;17.70;16.13;;;1126.80;1356.80;;;;;;4984475;28;20038;-61
2023/08/22 06:24:18;;;;;;;16.42;14.63;;;1126.50;1356.80;;;;;;4990788;28;20026;-61
2023/08/22 06:26:44;;;;;;;19.20;17.60;;;1101.50;1356.80;;;;;;4990708;28;20081;-63
2023/08/22 06:29:10;;;;;;;18.65;16.85;;;1126.60;1356.80;;;;;;4979236;28;20022;-62
2023/08/22 06:31:36;;;;;;;17.90;16.23;;;1101.60;1356.80;;;;;;4990999;28;20046;-61
2023/08/22 06:34:02;;;;;;;20.42;18.35;;;1126.90;1331.20;;;;;;4990429;28;20023;-61
2023/08/22 06:36:28;;;;;;;19.95;18.10;;;1127.00;1356.80;;;;;;4990456;28;20025;-63
2023/08/22 06:38:53;;;;;;;20.52;18.83;;;1127.30;1331.20;;;;;;4991103;28;20030;-64
2023/08/22 06:41:20;;;;;;;19.17;17.77;;;1152.10;1331.20;;;;;;4990315;28;20041;-62
2023/08/22 06:43:46;;;;;;;20.65;19.25;;;;;;;;;;4990885;28;20252;-60
2023/08/22 06:46:13;;;;;;;20.35;18.38;;;;;;;;;;4990482;28;20033;-65
2023/08/22 06:48:38;;;;;;;20.33;18.33;;;1152.90;1280.00;;;;;;4990221;28;20125;-62
2023/08/22 06:51:04;;;;;;;18.60;17.02;;;1152.70;1305.60;;;;;;4990414;28;20509;-63
2023/08/22 06:53:30;;;;;;;20.73;18.98;;;1152.60;1280.00;;;;;;4990279;28;20018;-61
2023/08/22 06:55:56;;;;;;;19.73;17.98;;;1178.20;1228.80;;;;;;4990111;28;20034;-61
2023/08/22 06:58:22;;;;;;;20.20;18.70;;;1178.10;1228.80;;;;;;4990355;28;20458;-63
2023/08/22 09:14:12;;;;;;;15.33;13.73;;;947.90;1484.80;;;;;;5012743;28;20075;-61
2023/08/22 09:28:28;;;;;;;16.27;14.65;;;948.00;1484.80;;;;;;5043167;22;20126;-61
2023/08/22 09:30:54;;;;;;;16.45;14.82;;;948.10;1459.20;;;;;;5071423;28;20087;-61
2023/08/22 09:33:20;;;;;;;15.98;14.57;;;947.50;1510.40;;;;;;5071197;28;20036;-61
2023/08/22 09:35:48;;;;;;;16.00;14.25;;;947.20;1459.20;;;;;;5071013;28;20100;-61
2023/08/22 09:38:13;;;;;;;15.07;13.88;;;922.50;1484.80;;;;;;5065084;28;20008;-60
2023/08/22 09:40:51;;;;;;;14.60;13.30;;;947.30;1484.80;;;;;;5090735;28;20024;-60
2023/08/22 09:43:19;;;;;;;15.82;14.32;;;947.70;1536.00;;;;;;5082031;28;20078;-61
2023/08/22 09:45:45;;;;;;;16.75;15.10;;;948.00;1484.80;;;;;;5074809;28;20457;-61
2023/08/22 09:48:23;;;;;;;16.75;15.35;;;948.10;1484.80;;;;;;5079126;28;20036;-61
2023/08/22 09:50:51;;;;;;;16.92;15.15;;;948.00;1510.40;;;;;;5073109;28;20020;-61
2023/08/22 09:53:20;;;;;;;17.67;15.75;;;948.10;1484.80;;;;;;5090568;28;20024;-61
2023/08/22 09:55:48;;;;;;;17.33;15.73;;;947.30;1536.00;;;;;;5077662;28;20505;-61
2023/08/22 09:58:15;;;;;;;16.73;15.25;;;947.70;1510.40;;;;;;5081744;28;20059;-61
2023/08/22 10:12:48;;;;;;;16.90;15.50;;;947.20;1561.60;;;;;;5048840;23;20076;-62
2023/08/22 10:15:15;;;;;;;20.05;16.00;;;922.50;1561.60;;;;;;5048361;28;20486;-63
2023/08/22 10:17:43;;;;;;;17.27;15.70;;;922.00;1561.60;;;;;;5048653;28;20025;-62
2023/08/22 10:20:12;;;;;;;17.20;15.55;;;921.80;1612.80;;;;;;5047170;28;20025;-61
2023/08/22 10:22:37;;;;;;;17.27;15.52;;;896.80;1587.20;;;;;;5048906;28;20478;-62
2023/08/22 10:25:06;;;;;;;15.88;14.50;;;921.60;1587.20;;;;;;5056678;28;20031;-62
2023/08/22 10:27:32;;;;;;;17.65;16.05;;;896.50;1587.20;;;;;;5052506;28;20032;-62
2023/08/22 10:30:13;;;;;;;16.63;15.23;;;921.60;1612.80;;;;;;5061005;28;20048;-62
2023/08/22 10:32:40;;;;;;;16.33;14.82;;;896.70;1587.20;;;;;;5068160;28;20028;-62
2023/08/22 10:35:18;;;;;;;15.35;14.15;;;896.20;1587.20;;;;;;5066268;28;20382;-61
2023/08/22 10:37:47;;;;;;;16.42;14.85;;;896.00;1587.20;;;;;;5057688;28;20498;-62
2023/08/22 10:40:33;;;;;;;15.25;13.77;;;871.20;1587.20;;;;;;5069950;28;20489;-62
2023/08/22 10:43:10;;;;;;;14.80;13.48;;;871.00;1561.60;;;;;;5058783;28;20041;-62
2023/08/22 10:45:37;;;;;;;19.38;15.05;;;870.70;1612.80;;;;;;5055334;28;20055;-62
2023/08/22 10:48:13;;;;;;;15.07;13.57;;;871.20;1587.20;;;;;;5057238;28;20158;-62
2023/08/22 10:50:44;;;;;;;16.48;14.02;;;896.00;1561.60;;;;;;5036813;28;20108;-63
2023/08/22 10:53:21;;;;;;;14.55;13.23;;;871.20;1561.60;;;;;;5050943;28;20090;-63
2023/08/22 10:55:48;;;;;;;15.82;14.38;;;871.00;1561.60;;;;;;5069463;28;20024;-63
2023/08/22 10:58:40;;;;;;;15.15;13.80;;;870.90;1561.60;;;;;;5060575;28;20017;-65
2023/08/22 11:01:12;;;;;;;16.83;15.32;;;871.10;1561.60;;;;;;5062685;28;20049;-63
2023/08/22 11:03:38;;;;;;;16.47;14.87;;;871.10;1587.20;;;;;;5049483;28;20521;-65
2023/08/22 11:06:16;;;;;;;15.18;13.65;;;871.00;1587.20;;;;;;5063984;28;20488;-63
2023/08/22 11:08:43;;;;;;;15.38;14.00;;;871.20;1587.20;;;;;;5069795;28;20041;-61
2023/08/22 11:11:10;;;;;;;17.52;16.02;;;896.00;1561.60;;;;;;5071960;28;20037;-62
2023/08/22 11:13:39;;;;;;;15.88;14.30;;;896.00;1561.60;;;;;;5089772;28;20016;-62
2023/08/22 11:16:11;;;;;;;15.93;14.32;;;871.10;1561.60;;;;;;5055197;28;20370;-64
2023/08/22 11:18:39;;;;;;;15.27;13.85;;;871.20;1561.60;;;;;;5068936;28;20541;-64
2023/08/22 11:21:05;;;;;;;16.52;14.90;;;896.10;1638.40;;;;;;5069007;28;20036;-63
2023/08/22 11:23:35;;;;;;;16.67;15.02;;;896.40;1561.60;;;;;;5069179;28;20017;-64
2023/08/22 11:26:02;;;;;;;15.13;13.85;;;896.00;1561.60;;;;;;5069327;28;20016;-62
2023/08/22 11:28:34;;;;;;;14.48;13.27;;;896.40;1561.60;;;;;;5072098;28;20035;-69
2023/08/22 11:31:02;;;;;;;14.48;13.25;;;896.30;1561.60;;;;;;5067661;28;20025;-64
2023/08/22 11:33:45;;;;;;;15.10;13.85;;;896.30;1561.60;;;;;;5069245;28;20037;-64
2023/08/22 11:36:11;;;;;;;15.13;13.75;;;871.20;1561.60;;;;;;5066906;28;20024;-62
2023/08/22 11:38:36;;;;;;;15.02;13.75;;;871.10;1561.60;;;;;;5073759;28;20033;-62
2023/08/22 11:41:04;;;;;;;13.60;12.60;;;871.20;1587.20;;;;;;5077369;28;20127;-64
2023/08/22 11:43:30;;;;;;;14.88;13.38;;;871.30;1561.60;;;;;;5089014;28;20036;-60
2023/08/22 11:45:56;;;;;;;14.85;13.30;;;896.00;1561.60;;;;;;5079603;28;20024;-62
2023/08/22 11:48:23;;;;;;;15.52;14.02;;;871.30;1536.00;;;;;;5085514;28;20032;-64
2023/08/22 11:50:50;;;;;;;15.57;13.98;;;896.10;1587.20;;;;;;5088792;28;20062;-65
2023/08/22 11:53:16;;;;;;;15.73;14.23;;;871.30;1561.60;;;;;;5085777;28;20025;-61
2023/08/22 11:55:44;;;;;;;15.57;14.02;;;871.20;1587.20;;;;;;5060546;28;20047;-61
2023/08/22 11:58:17;;;;;;;15.75;14.10;;;870.90;1587.20;;;;;;5088961;28;20024;-62
2023/08/22 12:00:43;;;;;;;15.70;14.02;;;870.80;1612.80;;;;;;5087890;28;20062;-62
2023/08/22 12:03:09;;;;;;;14.20;12.80;;;871.10;1587.20;;;;;;5070713;28;20036;-62
2023/08/22 12:05:48;;;;;;;15.43;13.88;;;871.10;1587.20;;;;;;5088348;28;20027;-63
2023/08/22 12:08:14;;;;;;;13.90;12.60;;;871.20;1587.20;;;;;;5088283;28;20024;-63
2023/08/22 12:10:51;;;;;;;14.75;13.45;;;871.30;1587.20;;;;;;5079695;28;20085;-62
2023/08/22 12:13:19;;;;;;;14.40;13.18;;;871.10;1587.20;;;;;;5087350;28;20447;-64
2023/08/22 12:15:45;;;;;;;15.27;13.63;;;870.90;1587.20;;;;;;5087666;28;20036;-62
2023/08/22 12:18:11;;;;;;;14.73;13.43;;;871.30;1587.20;;;;;;5087086;28;20126;-62
2023/08/22 12:20:39;;;;;;;15.45;14.23;;;896.10;1612.80;;;;;;5070863;28;20069;-62
2023/08/22 12:23:06;;;;;;;14.55;13.30;;;871.30;1587.20;;;;;;5066752;28;20474;-63
2023/08/22 12:25:34;;;;;;;17.80;16.05;;;871.20;1587.20;;;;;;5083583;28;20020;-60
2023/08/22 12:28:02;;;;;;;16.20;14.80;;;870.90;1612.80;;;;;;5087106;28;20508;-61
2023/08/22 12:30:30;;;;;;;15.25;13.95;;;870.90;1638.40;;;;;;5087335;28;20052;-62
2023/08/22 12:32:56;;;;;;;20.90;13.73;;;871.20;1612.80;;;;;;5086363;28;20017;-62
2023/08/22 12:35:21;;;;;;;15.70;14.18;;;871.30;1587.20;;;;;;5066525;28;20062;-62
2023/08/22 12:37:47;;;;;;;16.85;15.20;;;871.20;1587.20;;;;;;5080616;28;20028;-62
2023/08/22 12:40:13;;;;;;;15.70;14.20;;;871.10;1587.20;;;;;;5087299;28;20113;-62
2023/08/22 12:42:41;;;;;;;15.57;14.15;;;871.10;1587.20;;;;;;5085957;28;20040;-64
2023/08/22 12:45:07;;;;;;;15.98;14.57;;;871.10;1587.20;;;;;;5087222;28;20036;-63
2023/08/22 12:47:34;;;;;;;15.75;14.25;;;871.20;1587.20;;;;;;5085405;28;20037;-62
2023/08/22 12:50:00;;;;;;;16.65;15.05;;;871.20;1587.20;;;;;;5066678;28;20025;-62
2023/08/22 12:52:26;;;;;;;15.95;14.45;;;896.20;1612.80;;;;;;5081623;28;20359;-63
2023/08/22 12:54:51;;;;;;;16.33;14.82;;;896.10;1561.60;;;;;;5089731;28;20024;-62
2023/08/22 12:57:17;;;;;;;15.20;13.90;;;871.30;1612.80;;;;;;5075472;28;20031;-64
2023/08/22 12:59:43;;;;;;;15.13;13.82;;;871.30;1587.20;;;;;;5070714;28;20035;-64
2023/08/22 13:02:08;;;;;;;15.48;14.05;;;871.30;1587.20;;;;;;5083516;28;20363;-61
2023/08/22 13:04:34;;;;;;;17.00;15.52;;;871.10;1587.20;;;;;;5082589;28;20095;-62
2023/08/22 13:07:00;;;;;;;15.88;14.38;;;871.30;1587.20;;;;;;5070638;28;20086;-64
2023/08/22 13:09:26;;;;;;;15.95;14.40;;;871.10;1587.20;;;;;;5082772;28;20036;-63
2023/08/22 13:11:51;;;;;;;16.85;13.95;;;871.10;1587.20;;;;;;5070686;28;20582;-62
2023/08/22 13:14:17;;;;;;;16.05;14.57;;;871.00;1587.20;;;;;;5090167;28;20031;-64
2023/08/22 13:16:43;;;;;;;16.65;15.00;;;871.00;1587.20;;;;;;5089227;28;20032;-61
2023/08/22 13:19:09;;;;;;;17.73;16.08;;;870.90;1612.80;;;;;;5077927;28;20016;-63
2023/08/22 13:21:35;;;;;;;14.73;13.43;;;871.10;1638.40;;;;;;5086980;28;20032;-61
2023/08/22 13:24:01;;;;;;;15.40;13.93;;;871.20;1664.00;;;;;;5079205;28;20025;-61
2023/08/22 13:26:28;;;;;;;16.23;14.75;;;870.70;1612.80;;;;;;5087029;28;20504;-62
2023/08/22 13:28:54;;;;;;;16.13;14.48;;;870.60;1638.40;;;;;;5075741;28;20432;-60
2023/08/22 13:31:20;;;;;;;16.42;14.80;;;870.70;1638.40;;;;;;5089668;28;20052;-63
2023/08/22 13:33:46;;;;;;;16.20;14.57;;;870.90;1638.40;;;;;;5090134;28;20050;-64
2023/08/22 13:36:12;;;;;;;15.98;14.68;;;871.00;1638.40;;;;;;5086945;28;20031;-62
2023/08/22 13:38:38;;;;;;;15.98;14.57;;;871.10;1638.40;;;;;;5069517;28;20112;-64
2023/08/22 13:41:04;;;;;;;16.38;14.80;;;871.00;1587.20;;;;;;5089316;28;20672;-63
2023/08/22 13:43:30;;;;;;;17.00;15.35;;;870.90;1638.40;;;;;;5070374;28;20127;-62
2023/08/22 13:45:55;;;;;;;15.63;14.32;;;871.10;1612.80;;;;;;5087471;28;20056;-63
2023/08/22 13:48:21;;;;;;;16.67;14.85;;;871.10;1612.80;;;;;;5069507;28;20051;-62
2023/08/22 13:50:47;;;;;;;15.75;14.20;;;871.10;1587.20;;;;;;5077470;28;20103;-62
2023/08/22 13:53:13;;;;;;;14.98;13.38;;;871.10;1587.20;;;;;;5087519;28;20027;-61
2023/08/22 13:55:39;;;;;;;14.93;13.60;;;870.70;1561.60;;;;;;5089244;28;20024;-61
2023/08/22 13:58:05;;;;;;;16.17;14.68;;;870.80;1561.60;;;;;;5089664;28;20492;-62
2023/08/22 14:00:31;;;;;;;14.55;13.13;;;870.70;1587.20;;;;;;5089321;28;20020;-62
2023/08/22 14:02:57;;;;;;;14.77;13.48;;;870.70;1587.20;;;;;;5089251;28;20043;-63
2023/08/22 14:05:23;;;;;;;16.02;14.40;;;870.60;1587.20;;;;;;5089211;28;20378;-65
2023/08/22 14:07:49;;;;;;;16.77;14.32;;;870.60;1612.80;;;;;;5089015;28;20028;-64
2023/08/22 14:10:23;;;;;;;17.15;15.32;;;870.80;1612.80;;;;;;5089458;28;20081;-62
2023/08/22 14:12:50;;;;;;;19.42;14.25;;;871.10;1638.40;;;;;;5088178;28;20063;-64
2023/08/22 14:15:16;;;;;;;17.67;15.88;;;871.10;1612.80;;;;;;5088713;28;20130;-63
2023/08/22 14:17:41;;;;;;;16.90;15.48;;;871.10;1612.80;;;;;;5069083;28;20386;-61
2023/08/22 14:20:07;;;;;;;18.00;16.38;;;871.10;1689.60;;;;;;5081573;28;20381;-62
2023/08/22 14:22:33;;;;;;;17.73;16.10;;;871.30;1638.40;;;;;;5076519;28;20046;-61
2023/08/22 14:24:59;;;;;;;22.00;17.05;;;870.90;1664.00;;;;;;5074207;28;20020;-61
2023/08/22 14:27:25;;;;;;;17.75;15.95;;;870.70;1664.00;;;;;;5057446;28;20055;-62
2023/08/22 14:29:50;;;;;;;17.63;16.13;;;870.90;1689.60;;;;;;5086439;28;20078;-63
2023/08/22 14:32:16;;;;;;;17.65;16.02;;;871.00;1664.00;;;;;;5050257;28;20041;-61
2023/08/22 14:34:42;;;;;;;18.60;16.85;;;871.10;1715.20;;;;;;5081677;28;20028;-62
2023/08/22 14:37:07;;;;;;;17.35;15.63;;;870.90;1689.60;;;;;;5085564;28;20028;-61